Terminal Aerodrome Forecast
Issued by NWS Oklahoma City, OK

Home | Current Version | Previous Version | Text Only | Print | Product List | Glossary On
Versions: 1 2 3 4 5 6 7 8 9 10 11 12 13 14 15 16 17 18 19 20 21 22 23 24 25
000
FTUS44 KOUN 261132
TAFOUN
TAF
KOUN 261132Z 2612/2712 06012KT P6SM OVC010
     FM261600 06014G20KT P6SM BKN025
     FM262000 08013G19KT P6SM SCT040 BKN250
     FM262300 08015G22KT P6SM BKN040 PROB30 2623/2702 2SM TSRA
      OVC030CB
     FM270200 05016G23KT 4SM -TSRA BR OVC030CB
      TEMPO 2702/2706 1SM TSRA OVC015CB
     FM270600 07016G24KT 2SM TSRA BR BKN008 OVC015CB=

USA.gov is the U.S. government's official web portal to all federal, state and local government web resources and services.